Time;durP1;ratioP1;P1;durP2;ratioP2;P2;SDS_P1;SDS_P2;PMS_P1;PMS_P2;Temp;Humidity;BMP_temperature;BMP_pressure;BME280_temperature;BME280_humidity;BME280_pressure;Samples;Min_cycle;Max_cycle;Signal;HPM_P1;HPM_P2
2023/02/20 00:01:53;;;;;;;0.20;0.20;;;;;;;14.63;37.22;95389.66;5051806;28;20455;-66
2023/02/20 00:04:20;;;;;;;0.30;0.30;;;;;;;14.77;37.23;95380.09;5051859;28;20958;-72
2023/02/20 00:06:47;;;;;;;0.20;0.20;;;;;;;14.66;37.46;95394.38;5051865;28;20475;-64
2023/02/20 00:09:14;;;;;;;0.30;0.30;;;;;;;14.20;38.71;95395.47;5051798;28;20451;-73
2023/02/20 00:11:41;;;;;;;2.77;1.77;;;;;;;14.73;37.57;95394.88;5051395;28;20820;-72
2023/02/20 00:14:08;;;;;;;0.20;0.20;;;;;;;14.62;38.41;95398.59;5051611;28;21009;-67
2023/02/20 00:16:35;;;;;;;0.60;0.60;;;;;;;14.70;37.84;95405.19;5051327;28;20496;-63
2023/02/20 00:19:02;;;;;;;0.37;0.37;;;;;;;14.14;39.36;95391.28;5051287;28;20471;-68
2023/02/20 00:21:29;;;;;;;0.73;0.63;;;;;;;14.52;38.54;95395.19;5051287;28;20439;-71
2023/02/20 00:23:56;;;;;;;0.27;0.27;;;;;;;14.41;38.57;95391.00;5051392;28;20454;-65
2023/02/20 00:26:23;;;;;;;0.40;0.40;;;;;;;14.19;39.33;95405.25;5050795;28;20469;-69
2023/02/20 00:28:49;;;;;;;1.40;1.33;;;;;;;14.31;39.44;95401.56;5052413;28;20478;-65
2023/02/20 00:31:19;;;;;;;0.73;0.70;;;;;;;13.95;39.81;95403.41;5049540;28;20469;-69
2023/02/20 00:33:46;;;;;;;0.13;0.13;;;;;;;14.29;39.46;95391.28;5051314;28;20479;-65
2023/02/20 00:36:19;;;;;;;0.13;0.13;;;;;;;14.48;38.64;95417.88;5051290;28;20451;-69
2023/02/20 00:38:46;;;;;;;1.30;0.97;;;;;;;13.75;40.25;95392.84;5051286;28;20517;-65
2023/02/20 00:41:14;;;;;;;0.10;0.10;;;;;;;13.77;40.25;95401.28;5051164;28;20443;-68
2023/02/20 00:43:41;;;;;;;1.17;0.50;;;;;;;13.76;40.47;95389.16;5049914;28;20439;-72
2023/02/20 00:46:13;;;;;;;0.87;0.70;;;;;;;13.83;40.87;95385.22;5049298;28;20443;-65
2023/02/20 00:48:41;;;;;;;1.03;0.50;;;;;;;13.80;40.33;95387.59;5050708;28;20534;-75
2023/02/20 00:51:27;;;;;;;0.33;0.33;;;;;;;13.93;40.67;95394.97;5050381;28;20446;-63
2023/02/20 00:53:53;;;;;;;0.77;0.77;;;;;;;14.00;40.28;95406.03;5048708;28;20536;-74
2023/02/20 00:56:21;;;;;;;0.57;0.57;;;;;;;14.07;40.08;95409.19;5050474;28;20493;-69
2023/02/20 00:58:48;;;;;;;1.60;1.40;;;;;;;14.14;39.78;95401.84;5049794;28;20864;-71
2023/02/20 01:01:15;;;;;;;0.33;0.33;;;;;;;13.95;40.29;95419.22;5048842;28;20459;-62
2023/02/20 01:03:43;;;;;;;1.27;0.80;;;;;;;13.70;41.05;95416.56;5049492;28;20960;-67
2023/02/20 01:06:10;;;;;;;3.07;0.90;;;;;;;14.31;39.93;95417.38;5051064;28;20447;-64
2023/02/20 01:08:38;;;;;;;0.40;0.40;;;;;;;13.82;40.87;95425.00;5049399;28;20465;-70
2023/02/20 01:11:04;;;;;;;0.50;0.50;;;;;;;13.83;41.40;95452.94;5050698;28;20474;-70
2023/02/20 01:13:31;;;;;;;0.10;0.10;;;;;;;14.24;39.87;95449.25;5050951;28;20482;-69
2023/02/20 01:15:58;;;;;;;3.23;2.13;;;;;;;14.16;40.76;95447.13;5048800;28;20493;-62
2023/02/20 01:18:25;;;;;;;0.47;0.47;;;;;;;14.36;39.57;95441.88;5050076;28;20482;-68
2023/02/20 01:20:52;;;;;;;0.77;0.73;;;;;;;14.16;40.34;95457.66;5049895;28;20448;-63
2023/02/20 01:23:20;;;;;;;1.50;0.97;;;;;;;13.97;40.44;95435.53;5032608;28;20446;-71
2023/02/20 01:25:47;;;;;;;0.57;0.57;;;;;;;14.23;40.10;95452.97;5049782;28;20445;-71
2023/02/20 01:28:14;;;;;;;0.20;0.20;;;;;;;14.25;40.29;95456.09;5056449;28;20511;-66
2023/02/20 01:30:41;;;;;;;4.83;1.67;;;;;;;14.11;40.46;95470.84;5055720;28;20477;-72
2023/02/20 01:33:08;;;;;;;8.50;2.13;;;;;;;14.44;40.11;95464.28;5050051;28;20446;-70
2023/02/20 01:35:35;;;;;;;0.23;0.23;;;;;;;14.36;39.70;95462.97;5049543;28;20498;-65
2023/02/20 01:38:05;;;;;;;0.73;0.60;;;;;;;14.58;40.00;95463.47;5048619;28;20443;-66
2023/02/20 01:40:34;;;;;;;0.73;0.43;;;;;;;14.74;39.09;95454.50;5048575;28;20489;-66
2023/02/20 01:43:01;;;;;;;0.53;0.53;;;;;;;14.05;40.83;95450.84;5051910;28;20508;-68
2023/02/20 01:45:34;;;;;;;0.30;0.30;;;;;;;14.54;39.83;95465.09;5047989;28;20479;-70
2023/02/20 01:48:01;;;;;;;0.20;0.20;;;;;;;14.39;40.41;95459.81;5049940;28;20479;-63
2023/02/20 01:50:38;;;;;;;0.40;0.40;;;;;;;14.25;40.49;95464.00;5047962;28;20558;-69
2023/02/20 01:53:10;;;;;;;0.40;0.40;;;;;;;13.64;42.22;95467.63;5058587;28;20994;-68
2023/02/20 01:55:50;;;;;;;0.50;0.50;;;;;;;13.55;42.08;95458.66;5048005;28;20490;-68
2023/02/20 01:58:24;;;;;;;1.40;1.30;;;;;;;13.68;42.70;95460.81;5048368;28;20524;-66
2023/02/20 02:00:52;;;;;;;0.10;0.10;;;;;;;13.81;42.19;95460.31;5047861;28;20461;-71
2023/02/20 02:03:28;;;;;;;1.33;1.23;;;;;;;13.99;41.81;95462.44;5049372;28;20443;-69
2023/02/20 02:06:01;;;;;;;0.63;0.63;;;;;;;13.79;42.38;95468.47;5047350;28;20466;-63
2023/02/20 02:08:28;;;;;;;0.23;0.23;;;;;;;13.63;42.78;95473.97;5049412;28;20508;-67
2023/02/20 02:10:55;;;;;;;0.67;0.67;;;;;;;13.01;43.94;95480.00;5047902;28;20442;-69
2023/02/20 02:13:22;;;;;;;0.53;0.53;;;;;;;13.23;43.71;95469.34;5048390;28;20924;-70
2023/02/20 02:16:18;;;;;;;0.17;0.17;;;;;;;13.46;43.40;95473.38;5049426;28;20489;-68
2023/02/20 02:18:53;;;;;;;0.47;0.47;;;;;;;12.97;44.19;95476.28;5048168;28;20490;-72
2023/02/20 02:21:38;;;;;;;0.00;0.00;;;;;;;12.67;44.93;95485.84;5049368;28;20442;-69
2023/02/20 02:24:20;;;;;;;0.20;0.20;;;;;;;12.86;43.88;95487.84;5047855;28;20907;-65
2023/02/20 02:27:29;;;;;;;0.13;0.13;;;;;;;13.00;43.50;95491.59;5049179;28;20447;-69
2023/02/20 02:30:35;;;;;;;0.40;0.40;;;;;;;12.96;43.84;95511.56;5049513;28;20471;-66
2023/02/20 02:33:12;;;;;;;0.43;0.43;;;;;;;12.75;44.29;95499.34;5048058;28;20446;-71
2023/02/20 02:35:57;;;;;;;0.00;0.00;;;;;;;12.69;43.75;95500.34;5048908;28;20484;-65
2023/02/20 02:38:37;;;;;;;0.20;0.20;;;;;;;12.32;44.16;95501.41;5049397;28;20446;-62
2023/02/20 02:41:12;;;;;;;0.53;0.20;;;;;;;12.55;44.26;95493.94;5048876;28;20442;-68
2023/02/20 02:43:52;;;;;;;0.10;0.10;;;;;;;12.47;43.85;95491.78;5049338;28;20470;-67
2023/02/20 02:46:27;;;;;;;0.10;0.10;;;;;;;12.65;43.69;95498.47;5048528;28;20449;-73
2023/02/20 02:49:03;;;;;;;0.30;0.30;;;;;;;12.99;42.65;95511.03;5057093;28;20454;-62
2023/02/20 02:51:35;;;;;;;0.63;0.50;;;;;;;12.90;43.21;95502.03;5053937;28;20828;-63
2023/02/20 02:54:15;;;;;;;0.00;0.00;;;;;;;13.28;42.39;95510.69;5049228;28;20473;-74
2023/02/20 02:56:45;;;;;;;0.00;0.00;;;;;;;13.54;41.22;95507.13;5048329;28;20435;-68
2023/02/20 02:59:16;;;;;;;0.00;0.00;;;;;;;13.07;42.75;95518.47;5055961;28;20464;-65
2023/02/20 03:01:51;;;;;;;0.10;0.10;;;;;;;13.00;42.67;95530.25;5051919;28;20937;-62
2023/02/20 03:04:22;;;;;;;0.00;0.00;;;;;;;12.79;43.03;95529.31;5049569;28;20454;-66
2023/02/20 03:06:54;;;;;;;1.07;0.47;;;;;;;12.89;43.10;95545.19;5032916;28;20475;-65
2023/02/20 03:09:36;;;;;;;0.03;0.03;;;;;;;13.07;42.71;95534.28;5050564;28;20558;-62
2023/02/20 03:12:08;;;;;;;0.57;0.53;;;;;;;13.00;42.63;95528.41;5049270;28;20517;-72
2023/02/20 03:17:31;;;;;;;0.00;0.00;;;;;;;12.47;44.22;95533.84;5049741;28;20822;-68
2023/02/20 03:20:01;;;;;;;1.23;0.53;;;;;;;12.87;43.53;95534.13;5052873;28;20470;-70
2023/02/20 03:22:35;;;;;;;0.37;0.37;;;;;;;12.64;43.85;95547.66;5059658;28;20522;-62
2023/02/20 03:25:12;;;;;;;0.20;0.20;;;;;;;12.84;43.46;95539.09;5064204;28;20584;-63
2023/02/20 03:27:48;;;;;;;0.30;0.30;;;;;;;12.74;43.48;95545.06;5067723;28;20481;-64
2023/02/20 03:30:26;;;;;;;0.27;0.27;;;;;;;12.67;43.30;95514.78;5052150;28;20497;-65
2023/02/20 03:44:50;;;;;;;0.00;0.00;;;;;;;12.43;43.38;95564.28;5051121;28;20463;-73
2023/02/20 03:47:21;;;;;;;0.00;0.00;;;;;;;12.58;43.47;95567.03;5050280;28;20447;-69
2023/02/20 03:49:50;;;;;;;0.00;0.00;;;;;;;12.41;43.59;95561.13;5050753;28;20897;-67
2023/02/20 03:52:18;;;;;;;0.73;0.30;;;;;;;11.75;44.33;95558.91;5051524;28;20960;-66
2023/02/20 03:54:46;;;;;;;0.00;0.00;;;;;;;12.38;43.71;95560.81;5051544;28;20486;-67
2023/02/20 03:57:22;;;;;;;0.10;0.10;;;;;;;12.23;43.75;95561.47;5050760;28;20443;-71
2023/02/20 03:59:57;;;;;;;0.40;0.40;;;;;;;11.85;44.81;95577.38;5051488;28;20443;-63
2023/02/20 04:02:30;;;;;;;0.40;0.37;;;;;;;11.51;45.26;95570.66;5050263;28;20450;-61
2023/02/20 04:05:04;;;;;;;0.00;0.00;;;;;;;11.61;44.78;95566.31;5051866;28;20439;-65
2023/02/20 04:07:54;;;;;;;0.60;0.60;;;;;;;11.31;45.24;95559.91;5051706;28;20531;-66
2023/02/20 04:10:40;;;;;;;0.00;0.00;;;;;;;11.59;44.90;95578.09;5051359;28;20446;-69
2023/02/20 04:13:08;;;;;;;0.00;0.00;;;;;;;11.24;45.15;95566.13;5052275;28;20482;-75
2023/02/20 04:15:37;;;;;;;0.07;0.07;;;;;;;11.47;45.21;95561.69;5049867;28;20494;-69
2023/02/20 04:18:12;;;;;;;0.97;0.60;;;;;;;11.47;45.03;95572.97;5050478;28;20505;-64
2023/02/20 04:20:40;;;;;;;0.00;0.00;;;;;;;11.31;45.33;95586.16;5050386;28;20457;-64
2023/02/20 04:23:24;;;;;;;0.00;0.00;;;;;;;11.77;44.00;95580.47;5050886;28;20454;-66
2023/02/20 04:25:57;;;;;;;0.20;0.20;;;;;;;11.83;44.36;95574.19;5050152;28;20471;-72
2023/02/20 04:28:25;;;;;;;0.00;0.00;;;;;;;12.01;43.76;95577.28;5049579;28;20451;-74
2023/02/20 04:30:59;;;;;;;0.00;0.00;;;;;;;11.97;43.99;95580.69;5050692;28;20804;-72
2023/02/20 04:33:26;;;;;;;0.10;0.10;;;;;;;12.32;43.30;95580.22;5051258;28;20454;-62
2023/02/20 04:35:59;;;;;;;0.10;0.10;;;;;;;11.70;44.17;95579.81;5049754;28;20487;-64
2023/02/20 04:38:27;;;;;;;0.00;0.00;;;;;;;12.01;43.80;95581.75;5053482;28;20535;-67
2023/02/20 04:40:55;;;;;;;0.20;0.20;;;;;;;12.01;43.87;95587.00;5067002;28;20568;-59
2023/02/20 04:43:23;;;;;;;0.07;0.07;;;;;;;11.77;44.22;95580.47;5066612;28;20885;-62
2023/02/20 04:45:50;;;;;;;0.10;0.10;;;;;;;11.96;44.20;95582.50;5067929;28;20447;-61
2023/02/20 04:48:17;;;;;;;0.10;0.10;;;;;;;12.08;44.08;95583.13;5061327;28;20931;-62
2023/02/20 04:50:45;;;;;;;0.30;0.20;;;;;;;12.16;43.53;95587.16;5059755;28;21029;-69
2023/02/20 04:53:14;;;;;;;0.00;0.00;;;;;;;12.01;43.75;95597.50;5053069;28;20468;-72
2023/02/20 04:55:40;;;;;;;0.00;0.00;;;;;;;12.13;43.20;95600.81;5056032;28;21044;-61
2023/02/20 04:58:12;;;;;;;0.20;0.20;;;;;;;12.09;43.25;95611.00;5051880;28;20550;-68
2023/02/20 05:00:54;;;;;;;0.30;0.30;;;;;;;12.03;42.66;95605.94;5055208;28;20449;-70
2023/02/20 05:03:21;;;;;;;0.43;0.30;;;;;;;12.06;42.84;95613.34;5053144;28;20563;-64
2023/02/20 05:05:48;;;;;;;0.00;0.00;;;;;;;12.41;41.64;95607.66;5049780;28;21032;-65
2023/02/20 05:08:15;;;;;;;0.53;0.53;;;;;;;12.07;42.50;95623.59;5052191;28;20534;-67
2023/02/20 05:10:41;;;;;;;0.00;0.00;;;;;;;12.00;41.86;95632.72;5049672;28;20985;-65
2023/02/20 05:13:08;;;;;;;0.00;0.00;;;;;;;11.72;42.23;95635.50;5050612;28;20546;-68
2023/02/20 05:15:35;;;;;;;0.40;0.40;;;;;;;11.49;42.41;95622.59;5050178;28;20510;-67
2023/02/20 05:18:02;;;;;;;0.43;0.43;;;;;;;11.53;41.79;95623.69;5049984;28;20475;-74
2023/02/20 05:23:24;;;;;;;0.00;0.00;;;;;;;11.56;41.56;95623.22;5084380;28;20490;-63
2023/02/20 05:25:53;;;;;;;0.00;0.00;;;;;;;11.32;41.71;95629.69;5050042;28;20463;-64
2023/02/20 05:28:21;;;;;;;0.37;0.37;;;;;;;11.53;41.24;95639.44;5051802;28;20455;-69
2023/02/20 05:30:48;;;;;;;0.00;0.00;;;;;;;11.65;40.81;95653.28;5055154;28;20459;-64
2023/02/20 05:33:15;;;;;;;0.00;0.00;;;;;;;11.55;41.01;95647.88;5059723;28;20457;-69
2023/02/20 05:35:42;;;;;;;0.90;0.87;;;;;;;11.63;40.50;95660.56;5059431;28;20507;-62
2023/02/20 05:38:08;;;;;;;0.10;0.10;;;;;;;11.69;40.62;95670.13;5050231;28;20500;-64
2023/02/20 05:40:35;;;;;;;0.10;0.10;;;;;;;11.49;41.39;95672.47;5054525;28;21275;-65
2023/02/20 05:43:02;;;;;;;0.00;0.00;;;;;;;11.49;41.06;95675.09;5049247;28;20427;-66
2023/02/20 05:45:29;;;;;;;0.00;0.00;;;;;;;11.30;42.14;95673.75;5048748;28;20451;-69
2023/02/20 05:47:56;;;;;;;0.00;0.00;;;;;;;11.52;41.90;95677.22;5048318;28;20522;-68
2023/02/20 05:50:23;;;;;;;0.47;0.47;;;;;;;11.74;41.47;95670.19;5048201;28;20558;-66
2023/02/20 05:52:50;;;;;;;0.00;0.00;;;;;;;11.82;42.86;95675.84;5049339;28;20439;-66
2023/02/20 05:55:17;;;;;;;2.30;1.60;;;;;;;11.78;42.70;95645.84;5048588;28;21071;-69
2023/02/20 05:57:44;;;;;;;2.57;2.17;;;;;;;11.47;43.05;95661.41;5048694;28;20447;-68
2023/02/20 06:00:12;;;;;;;0.97;0.83;;;;;;;11.71;41.69;95670.69;5048309;28;20501;-63
2023/02/20 06:02:39;;;;;;;0.50;0.50;;;;;;;11.70;42.30;95664.63;5048719;28;20918;-69
2023/02/20 06:05:06;;;;;;;0.63;0.63;;;;;;;11.86;41.70;95668.25;5048677;28;21039;-68
2023/02/20 06:07:34;;;;;;;0.30;0.30;;;;;;;11.94;41.53;95667.81;5050414;28;20438;-69
2023/02/20 06:10:02;;;;;;;0.10;0.10;;;;;;;11.86;41.65;95676.16;5052106;28;20993;-65
2023/02/20 06:12:29;;;;;;;0.20;0.17;;;;;;;12.31;41.00;95668.78;5049301;28;20533;-71
2023/02/20 06:14:56;;;;;;;0.00;0.00;;;;;;;12.42;40.24;95675.72;5049103;28;20467;-69
2023/02/20 06:17:23;;;;;;;0.00;0.00;;;;;;;11.44;41.50;95682.91;5049131;28;20504;-64
2023/02/20 06:19:50;;;;;;;0.10;0.10;;;;;;;11.69;40.40;95646.50;5049084;28;20474;-65
2023/02/20 06:22:17;;;;;;;0.40;0.40;;;;;;;12.27;38.65;95678.19;5049606;28;20540;-68
2023/02/20 06:24:46;;;;;;;0.53;0.53;;;;;;;12.31;38.54;95681.91;5051498;28;20509;-66
2023/02/20 06:27:14;;;;;;;0.10;0.10;;;;;;;12.19;38.40;95689.94;5050707;28;20464;-69
2023/02/20 06:29:41;;;;;;;0.03;0.03;;;;;;;12.19;38.15;95689.94;5050536;28;20435;-67
2023/02/20 06:32:08;;;;;;;0.63;0.60;;;;;;;12.28;38.44;95700.78;5049864;28;20443;-67
2023/02/20 06:34:35;;;;;;;0.67;0.60;;;;;;;12.61;38.45;95682.22;5049742;28;20541;-69
2023/02/20 06:37:02;;;;;;;0.30;0.30;;;;;;;12.49;38.56;95699.97;5048738;28;20500;-64
2023/02/20 06:39:30;;;;;;;0.20;0.20;;;;;;;12.39;38.37;95691.97;5047710;28;20886;-68
2023/02/20 06:41:57;;;;;;;0.10;0.10;;;;;;;12.66;38.05;95694.63;5047586;28;20961;-66
2023/02/20 06:44:23;;;;;;;0.00;0.00;;;;;;;12.95;37.47;95701.22;5047711;28;20474;-68
2023/02/20 06:46:50;;;;;;;0.00;0.00;;;;;;;13.06;37.79;95708.94;5047178;28;20499;-65
2023/02/20 06:49:17;;;;;;;0.00;0.00;;;;;;;12.57;37.43;95673.22;5048102;28;20697;-66
2023/02/20 06:51:44;;;;;;;0.10;0.10;;;;;;;12.49;37.47;95710.50;5049800;28;21241;-67
2023/02/20 06:54:12;;;;;;;0.27;0.27;;;;;;;12.24;38.42;95704.97;5052602;28;20451;-68
2023/02/20 06:56:39;;;;;;;0.60;0.30;;;;;;;12.45;38.06;95698.88;5052613;28;20492;-70
2023/02/20 06:59:07;;;;;;;0.00;0.00;;;;;;;12.53;37.80;95692.41;5053876;28;20446;-71
2023/02/20 07:01:40;;;;;;;0.10;0.10;;;;;;;11.75;38.73;95698.81;5053124;28;20474;-66
2023/02/20 07:04:19;;;;;;;0.00;0.00;;;;;;;12.28;38.12;95719.19;5052837;28;20534;-69
2023/02/20 07:06:47;;;;;;;1.07;1.03;;;;;;;12.96;36.83;95711.47;5053073;28;20449;-67
2023/02/20 07:09:15;;;;;;;1.27;1.17;;;;;;;12.20;37.54;95719.63;5054304;28;20474;-63
2023/02/20 07:11:42;;;;;;;0.10;0.10;;;;;;;12.69;36.80;95705.44;5060748;28;20813;-68
2023/02/20 07:14:09;;;;;;;0.00;0.00;;;;;;;12.27;37.12;95701.84;5069142;28;20433;-65
2023/02/20 07:16:36;;;;;;;0.00;0.00;;;;;;;12.64;36.75;95715.91;5062562;28;20467;-67
2023/02/20 07:19:03;;;;;;;0.77;0.47;;;;;;;12.63;36.31;95700.38;5054985;28;20546;-65
2023/02/20 07:21:29;;;;;;;0.00;0.00;;;;;;;12.72;36.05;95725.97;5052984;28;20443;-63
2023/02/20 07:23:56;;;;;;;0.10;0.10;;;;;;;13.21;35.31;95714.34;5052924;28;20449;-68
2023/02/20 07:26:26;;;;;;;0.00;0.00;;;;;;;12.97;35.61;95722.81;5052284;28;20473;-66
2023/02/20 07:28:54;;;;;;;0.00;0.00;;;;;;;13.29;35.01;95720.19;5053116;28;20810;-68
2023/02/20 07:31:20;;;;;;;0.00;0.00;;;;;;;12.89;35.16;95729.31;5052356;28;20997;-74
2023/02/20 07:33:47;;;;;;;0.00;0.00;;;;;;;12.53;34.79;95716.06;5052452;28;20546;-66
2023/02/20 07:36:15;;;;;;;0.10;0.10;;;;;;;12.48;35.14;95724.66;5051945;28;20510;-64
2023/02/20 07:38:42;;;;;;;0.10;0.10;;;;;;;12.72;34.82;95731.25;5052064;28;20482;-66
2023/02/20 07:41:13;;;;;;;0.07;0.07;;;;;;;12.77;34.17;95731.28;5051835;28;20445;-64
2023/02/20 07:43:40;;;;;;;0.13;0.13;;;;;;;13.06;33.91;95748.41;5051620;28;20447;-67
2023/02/20 07:46:07;;;;;;;0.10;0.10;;;;;;;12.71;34.10;95740.19;5051448;28;20485;-66
2023/02/20 07:48:35;;;;;;;0.00;0.00;;;;;;;12.57;34.13;95738.97;5052165;28;20794;-65
2023/02/20 07:51:02;;;;;;;0.27;0.27;;;;;;;12.25;34.63;95751.22;5051658;28;20443;-68
2023/02/20 07:53:29;;;;;;;0.00;0.00;;;;;;;12.48;34.40;95755.44;5052220;28;20490;-62
2023/02/20 07:55:56;;;;;;;0.00;0.00;;;;;;;12.57;33.88;95773.13;5051400;28;20489;-66
2023/02/20 07:58:24;;;;;;;0.00;0.00;;;;;;;11.89;34.85;95757.06;5051819;28;20435;-64
2023/02/20 08:00:52;;;;;;;8.63;1.47;;;;;;;11.81;35.13;95765.34;5051261;28;20467;-67
2023/02/20 08:03:19;;;;;;;0.00;0.00;;;;;;;12.08;34.47;95764.41;5051471;28;20516;-68
2023/02/20 08:05:46;;;;;;;1.60;0.87;;;;;;;12.43;34.15;95769.31;5051382;28;20443;-67
2023/02/20 08:08:16;;;;;;;0.00;0.00;;;;;;;11.82;34.49;95770.38;5051561;28;20510;-66
2023/02/20 08:10:43;;;;;;;0.00;0.00;;;;;;;11.75;35.10;95768.94;5051485;28;20493;-70
2023/02/20 08:13:10;;;;;;;0.00;0.00;;;;;;;12.13;34.29;95779.44;5051259;28;20534;-65
2023/02/20 08:15:36;;;;;;;0.60;0.50;;;;;;;12.64;34.13;95765.88;5051008;28;20554;-66
2023/02/20 08:18:03;;;;;;;0.00;0.00;;;;;;;12.90;33.61;95757.19;5051384;28;20466;-66
2023/02/20 08:20:41;;;;;;;0.00;0.00;;;;;;;13.28;32.59;95760.72;5050525;28;20449;-74
2023/02/20 08:23:19;;;;;;;0.10;0.10;;;;;;;13.29;32.74;95762.31;5051294;28;20863;-70
2023/02/20 08:25:46;;;;;;;0.00;0.00;;;;;;;12.33;33.32;95753.44;5050478;28;20453;-64
2023/02/20 08:28:13;;;;;;;0.00;0.00;;;;;;;13.26;32.01;95752.28;5050972;28;20939;-69
2023/02/20 08:30:40;;;;;;;0.00;0.00;;;;;;;13.17;33.10;95759.84;5050495;28;20520;-67
2023/02/20 08:33:07;;;;;;;0.00;0.00;;;;;;;12.85;32.28;95761.59;5051197;28;20861;-65
2023/02/20 08:35:34;;;;;;;0.00;0.00;;;;;;;13.37;32.09;95764.50;5050492;28;20483;-63
2023/02/20 08:38:03;;;;;;;0.10;0.10;;;;;;;13.92;31.63;95741.16;5050955;28;20443;-63
2023/02/20 08:40:31;;;;;;;0.00;0.00;;;;;;;13.58;32.00;95750.41;5050759;28;20489;-67
2023/02/20 08:42:58;;;;;;;0.00;0.00;;;;;;;13.16;32.20;95748.53;5051215;28;20482;-64
2023/02/20 08:45:25;;;;;;;0.00;0.00;;;;;;;13.70;31.38;95756.31;5051515;28;20921;-64
2023/02/20 08:48:00;;;;;;;0.00;0.00;;;;;;;14.15;31.05;95743.38;5051963;28;20787;-67
2023/02/20 08:50:28;;;;;;;0.20;0.20;;;;;;;13.61;31.79;95765.72;5050366;28;21241;-64
2023/02/20 08:52:54;;;;;;;0.00;0.00;;;;;;;13.72;31.25;95759.50;5050793;28;20482;-68
2023/02/20 08:55:23;;;;;;;0.20;0.20;;;;;;;13.63;31.25;95761.00;5048698;28;20871;-66
2023/02/20 08:57:50;;;;;;;5.20;1.60;;;;;;;14.10;30.80;95769.72;5051121;28;20885;-65
2023/02/20 09:00:18;;;;;;;0.00;0.00;;;;;;;13.34;31.55;95746.56;5051478;28;20446;-63
2023/02/20 09:02:48;;;;;;;0.00;0.00;;;;;;;13.74;31.54;95749.50;5051385;28;20528;-68
2023/02/20 09:05:16;;;;;;;0.00;0.00;;;;;;;13.69;30.95;95754.72;5050697;28;20442;-67
2023/02/20 09:07:44;;;;;;;0.00;0.00;;;;;;;14.17;30.15;95749.19;5050722;28;20439;-65
2023/02/20 09:10:11;;;;;;;0.20;0.20;;;;;;;14.50;30.10;95738.31;5050079;28;20435;-65
2023/02/20 09:12:40;;;;;;;0.10;0.10;;;;;;;14.30;29.80;95735.59;5050408;28;20465;-69
2023/02/20 09:15:11;;;;;;;6.43;1.33;;;;;;;14.78;30.03;95739.69;5049440;28;20442;-71
2023/02/20 09:17:38;;;;;;;0.47;0.23;;;;;;;15.49;29.21;95730.00;5050432;28;20487;-63
2023/02/20 09:20:08;;;;;;;0.20;0.20;;;;;;;14.68;29.66;95751.00;5050699;28;20794;-67
2023/02/20 09:22:35;;;;;;;0.10;0.10;;;;;;;14.82;29.07;95741.53;5050212;28;20459;-70
2023/02/20 09:25:03;;;;;;;0.00;0.00;;;;;;;14.59;29.41;95739.38;5050555;28;21029;-71
2023/02/20 09:27:30;;;;;;;0.10;0.10;;;;;;;14.36;29.60;95731.91;5049877;28;20463;-71
2023/02/20 09:29:57;;;;;;;0.30;0.30;;;;;;;14.71;29.74;95745.22;5049808;28;20505;-67
2023/02/20 09:32:24;;;;;;;0.00;0.00;;;;;;;14.25;29.44;95746.84;5049346;28;20439;-69
2023/02/20 09:34:51;;;;;;;0.00;0.00;;;;;;;15.15;29.22;95741.06;5049745;28;20443;-72
2023/02/20 09:37:18;;;;;;;0.70;0.70;;;;;;;15.13;29.01;95737.09;5049813;28;20491;-68
2023/02/20 09:39:45;;;;;;;0.00;0.00;;;;;;;15.49;28.76;95737.94;5049927;28;20443;-65
2023/02/20 09:42:26;;;;;;;0.10;0.10;;;;;;;15.15;28.62;95735.00;5049200;28;20999;-67
2023/02/20 09:45:12;;;;;;;0.33;0.33;;;;;;;14.50;30.27;95733.03;5050498;28;20446;-65
2023/02/20 09:47:50;;;;;;;0.00;0.00;;;;;;;14.69;29.17;95723.56;5050606;28;20469;-68
2023/02/20 09:50:33;;;;;;;0.00;0.00;;;;;;;15.48;29.05;95728.41;5050360;28;20560;-72
2023/02/20 09:53:11;;;;;;;0.10;0.10;;;;;;;15.61;29.30;95743.72;5051317;28;20481;-65
2023/02/20 09:55:39;;;;;;;0.20;0.20;;;;;;;15.79;28.53;95736.03;5059208;28;20454;-67
2023/02/20 09:58:33;;;;;;;0.00;0.00;;;;;;;15.70;28.49;95736.84;5052978;28;20529;-69
2023/02/20 10:01:02;;;;;;;0.10;0.10;;;;;;;15.41;28.72;95751.66;5048594;28;20446;-66
2023/02/20 10:03:41;;;;;;;0.00;0.00;;;;;;;15.72;28.60;95734.75;5061288;28;20434;-68
2023/02/20 10:06:17;;;;;;;0.13;0.13;;;;;;;16.32;27.20;95729.28;5049092;28;20992;-74
2023/02/20 10:08:47;;;;;;;0.37;0.20;;;;;;;15.77;27.54;95721.50;5050093;28;20443;-65
2023/02/20 10:11:43;;;;;;;0.10;0.10;;;;;;;15.45;28.48;95734.25;5049632;28;20442;-68
2023/02/20 10:14:33;;;;;;;0.00;0.00;;;;;;;16.01;27.06;95717.22;5062230;28;20489;-70
2023/02/20 10:17:19;;;;;;;0.10;0.10;;;;;;;15.64;27.61;95720.22;5048948;28;20573;-65
2023/02/20 10:20:10;;;;;;;0.00;0.00;;;;;;;15.79;28.16;95719.41;5049479;28;20471;-69
2023/02/20 10:22:42;;;;;;;0.00;0.00;;;;;;;15.88;27.55;95717.78;5049651;28;20450;-67
2023/02/20 10:25:29;;;;;;;0.10;0.10;;;;;;;15.93;27.30;95715.16;5050272;28;20504;-70
2023/02/20 10:28:14;;;;;;;0.00;0.00;;;;;;;15.89;26.68;95708.81;5056250;28;20885;-76
2023/02/20 10:30:46;;;;;;;0.03;0.03;;;;;;;15.56;26.79;95709.41;5056489;28;20442;-68
2023/02/20 10:33:18;;;;;;;0.10;0.10;;;;;;;16.15;26.57;95702.38;5057363;28;20446;-67
2023/02/20 10:36:24;;;;;;;3.60;0.53;;;;;;;16.30;26.36;95701.50;5056691;28;20854;-65
2023/02/20 10:38:57;;;;;;;0.00;0.00;;;;;;;16.52;26.27;95705.41;5055809;28;20443;-65
2023/02/20 10:41:55;;;;;;;0.10;0.10;;;;;;;16.52;25.70;95702.78;5055698;28;20965;-63
2023/02/20 10:44:25;;;;;;;0.00;0.00;;;;;;;16.74;25.68;95700.53;5057252;28;20790;-67
2023/02/20 10:47:03;;;;;;;0.10;0.10;;;;;;;16.70;24.94;95688.91;5056147;28;20439;-66
2023/02/20 10:49:50;;;;;;;0.00;0.00;;;;;;;16.32;25.83;95702.84;5062800;28;20446;-65
2023/02/20 10:52:25;;;;;;;0.33;0.33;;;;;;;16.97;25.68;95702.50;5066002;28;20468;-67
2023/02/20 10:55:05;;;;;;;0.00;0.00;;;;;;;17.00;25.63;95701.16;5059422;28;20434;-66
2023/02/20 10:57:40;;;;;;;0.10;0.10;;;;;;;17.14;25.49;95678.28;5064610;28;20478;-64
2023/02/20 11:00:47;;;;;;;0.00;0.00;;;;;;;17.05;24.97;95690.53;5056379;28;21019;-66
2023/02/20 11:03:22;;;;;;;0.70;0.70;;;;;;;16.43;25.28;95680.56;5076935;28;20446;-72
2023/02/20 11:05:54;;;;;;;0.00;0.00;;;;;;;16.59;25.76;95676.81;5055088;28;20442;-70
2023/02/20 11:08:22;;;;;;;0.00;0.00;;;;;;;16.85;25.30;95665.00;5056060;28;20455;-69
2023/02/20 11:10:57;;;;;;;0.10;0.10;;;;;;;16.39;24.96;95655.72;5057245;28;20968;-65
2023/02/20 11:13:24;;;;;;;0.00;0.00;;;;;;;16.52;25.98;95665.75;5056172;28;20512;-70
2023/02/20 11:15:55;;;;;;;0.10;0.10;;;;;;;16.28;26.21;95672.69;5056724;28;20446;-67
2023/02/20 11:18:27;;;;;;;1.60;0.40;;;;;;;16.17;26.12;95657.94;5058316;28;21407;-72
2023/02/20 11:20:55;;;;;;;0.17;0.17;;;;;;;16.18;27.24;95633.09;5056978;28;20467;-67
2023/02/20 11:23:43;;;;;;;0.00;0.00;;;;;;;15.90;27.76;95644.31;5056826;28;20786;-63
2023/02/20 11:26:19;;;;;;;0.00;0.00;;;;;;;16.57;27.06;95649.81;5054396;28;20941;-72
2023/02/20 11:29:13;;;;;;;1.43;0.93;;;;;;;16.64;26.58;95658.25;5055609;28;20453;-68
2023/02/20 11:31:43;;;;;;;0.17;0.17;;;;;;;16.85;26.31;95638.53;5055030;28;20443;-72
2023/02/20 11:34:26;;;;;;;0.50;0.50;;;;;;;17.06;25.98;95647.13;5055352;28;20834;-68
2023/02/20 11:36:55;;;;;;;0.20;0.20;;;;;;;16.58;25.67;95642.69;5053268;28;20972;-73
2023/02/20 11:39:29;;;;;;;6.53;1.13;;;;;;;16.53;26.24;95645.38;5052283;28;20969;-64
2023/02/20 11:42:15;;;;;;;0.10;0.10;;;;;;;16.59;26.02;95650.34;5051473;28;20537;-69
2023/02/20 11:44:43;;;;;;;0.10;0.10;;;;;;;16.92;25.76;95646.16;5053907;28;20485;-69
2023/02/20 11:47:20;;;;;;;0.40;0.40;;;;;;;16.34;26.57;95647.81;5051630;28;20454;-64
2023/02/20 11:49:47;;;;;;;0.00;0.00;;;;;;;15.61;27.66;95643.34;5052356;28;20438;-65
2023/02/20 11:52:21;;;;;;;0.33;0.33;;;;;;;16.01;27.10;95640.56;5052108;28;20478;-65
2023/02/20 11:55:09;;;;;;;0.10;0.10;;;;;;;16.47;26.26;95636.66;5053002;28;20439;-69
2023/02/20 11:57:43;;;;;;;0.10;0.10;;;;;;;17.17;25.66;95651.22;5052314;28;20511;-66
2023/02/20 12:00:29;;;;;;;0.93;0.87;;;;;;;16.71;26.33;95620.91;5051135;28;20447;-65
2023/02/20 12:03:11;;;;;;;0.30;0.30;;;;;;;16.23;25.98;95646.28;5051697;28;20534;-66
2023/02/20 12:05:42;;;;;;;0.20;0.20;;;;;;;16.34;26.50;95626.66;5051273;28;20965;-72
2023/02/20 12:08:27;;;;;;;0.10;0.10;;;;;;;17.01;25.37;95629.41;5051671;28;20554;-70
2023/02/20 12:10:59;;;;;;;0.10;0.10;;;;;;;17.08;25.04;95611.31;5051184;28;20449;-64
2023/02/20 12:13:27;;;;;;;0.10;0.10;;;;;;;17.12;25.45;95636.19;5051676;28;20505;-64